createdAt,value
2018-05-14T07:13:47.692Z,854.13
2018-05-14T07:14:47.572Z,854.08
2018-05-14T07:16:41.005Z,853.98
2018-05-14T07:17:40.450Z,854.06
2018-05-14T07:19:33.904Z,854.06
2018-05-14T07:20:33.809Z,854.02
2018-05-14T07:22:27.189Z,854.05
2018-05-14T07:23:27.208Z,854.09
2018-05-14T07:25:21.989Z,854.08
2018-05-14T07:26:20.563Z,854.08
2018-05-14T07:28:14.012Z,854.05
2018-05-14T07:29:13.903Z,854.07
2018-05-14T07:31:07.976Z,854.04
2018-05-14T07:32:07.260Z,853.98
2018-05-14T07:34:00.709Z,854.00
2018-05-14T07:35:00.656Z,853.95
2018-05-14T07:36:00.633Z,853.94
2018-05-14T07:37:00.624Z,853.97
2018-05-14T07:38:00.625Z,854.00
2018-05-14T07:39:00.619Z,854.00
2018-05-14T07:40:00.610Z,853.99
2018-05-14T07:41:00.626Z,853.96
2018-05-14T07:42:00.591Z,853.90
2018-05-14T07:43:00.602Z,853.90
2018-05-14T07:44:00.576Z,853.85
2018-05-14T07:45:00.570Z,853.86
2018-05-14T07:46:00.645Z,853.80
2018-05-14T07:47:00.558Z,853.87
2018-05-14T07:48:00.552Z,853.84
2018-05-14T07:49:00.545Z,853.81
2018-05-14T07:50:00.543Z,853.76
2018-05-14T07:51:00.531Z,853.76
2018-05-14T07:52:00.546Z,853.73
2018-05-14T07:53:00.511Z,853.70
2018-05-14T07:54:01.102Z,853.72
2018-05-14T07:55:00.532Z,853.68
2018-05-14T07:56:00.499Z,853.68
2018-05-14T07:57:00.506Z,853.71
2018-05-14T07:58:00.483Z,853.69
2018-05-14T07:59:00.475Z,853.72
2018-05-14T08:00:00.581Z,853.71
2018-05-14T08:01:00.457Z,853.71
2018-05-14T08:02:00.456Z,853.67
2018-05-14T08:03:00.453Z,853.66
2018-05-14T08:04:00.442Z,853.67
2018-05-14T08:05:00.449Z,853.68
2018-05-14T08:06:00.422Z,853.63
2018-05-14T08:07:00.429Z,853.64
2018-05-14T08:09:33.289Z,853.69
2018-05-14T08:10:32.472Z,853.59
2018-05-14T08:12:48.057Z,853.65
2018-05-14T08:15:35.066Z,853.59
2018-05-14T08:16:23.979Z,853.55
2018-05-14T08:18:15.555Z,853.60
2018-05-14T08:19:15.508Z,853.64
2018-05-14T08:21:10.067Z,853.69
2018-05-14T08:22:09.051Z,853.72
2018-05-14T08:24:02.622Z,853.68
2018-05-14T08:25:02.616Z,853.71
2018-05-14T08:26:56.299Z,853.74
2018-05-14T08:27:56.178Z,853.70
2018-05-14T08:29:49.779Z,853.68
2018-05-14T08:30:49.771Z,853.71
2018-05-14T08:32:43.563Z,853.74
2018-05-14T08:33:43.355Z,853.72
2018-05-14T08:35:36.928Z,853.68
2018-05-14T08:36:36.909Z,853.65
2018-05-14T08:38:30.594Z,853.57
2018-05-14T08:39:30.486Z,853.69
2018-05-14T08:41:24.444Z,853.67
2018-05-14T08:42:24.084Z,853.67
2018-05-14T08:44:17.737Z,853.62
2018-05-14T08:45:17.626Z,853.68
2018-05-14T08:47:11.111Z,853.65
2018-05-14T08:48:10.619Z,853.61
2018-05-14T08:50:04.264Z,853.57
2018-05-14T08:51:04.305Z,853.54
2018-05-14T08:52:57.737Z,853.51
2018-05-14T08:53:57.717Z,853.48
2018-05-14T08:55:51.397Z,853.50
2018-05-14T08:56:51.276Z,853.49
2018-05-14T08:58:44.858Z,853.51
2018-05-14T08:59:44.865Z,853.55
2018-05-14T09:01:38.536Z,853.49
2018-05-14T09:02:38.414Z,853.49
2018-05-14T09:04:32.019Z,853.48
2018-05-14T09:05:32.008Z,853.42
2018-05-14T09:07:25.725Z,853.48
2018-05-14T09:08:25.570Z,853.43
2018-05-14T09:10:19.518Z,853.40
2018-05-14T09:11:19.134Z,853.43
2018-05-14T09:13:12.680Z,853.40
2018-05-14T09:14:12.112Z,853.40
2018-05-14T09:16:05.666Z,853.37
2018-05-14T09:17:05.656Z,853.33
2018-05-14T09:18:59.337Z,853.34
2018-05-14T09:19:59.240Z,853.28
2018-05-14T09:21:52.808Z,853.24
2018-05-14T09:22:52.797Z,853.23
2018-05-14T09:24:46.507Z,853.18
2018-05-14T09:25:46.381Z,853.18
2018-05-14T09:27:40.345Z,853.12
2018-05-14T09:28:39.933Z,853.10
2018-05-14T09:30:33.736Z,853.05
2018-05-14T09:31:33.528Z,853.08
2018-05-14T09:33:27.085Z,852.97
2018-05-14T09:34:27.077Z,852.98
2018-05-14T09:35:27.114Z,852.99
2018-05-14T09:36:27.087Z,853.03
2018-05-14T09:37:27.075Z,853.02
2018-05-14T09:38:27.050Z,853.00
2018-05-14T09:39:27.043Z,853.02
2018-05-14T09:40:27.035Z,853.07
2018-05-14T09:41:27.030Z,853.01
2018-05-14T09:42:27.060Z,853.03
2018-05-14T09:43:27.013Z,853.04
2018-05-14T09:44:27.091Z,853.03
2018-05-14T09:45:27.003Z,852.98
2018-05-14T09:46:26.994Z,852.96
2018-05-14T09:47:26.986Z,852.95
2018-05-14T09:48:26.979Z,852.92
2018-05-14T09:49:26.973Z,852.93
2018-05-14T09:50:27.030Z,852.95
2018-05-14T09:51:26.961Z,852.87
2018-05-14T09:52:26.972Z,852.88
2018-05-14T09:53:26.948Z,852.83
2018-05-14T09:54:26.944Z,852.82
2018-05-14T09:55:26.934Z,852.82
2018-05-14T09:56:26.927Z,852.78
2018-05-14T09:57:26.918Z,852.75
2018-05-14T09:58:26.914Z,852.74
2018-05-14T09:59:26.935Z,852.78
2018-05-14T10:00:27.818Z,852.81
2018-05-14T10:01:26.897Z,852.81
2018-05-14T10:02:28.916Z,852.81
2018-05-14T10:03:26.983Z,852.82
2018-05-14T10:04:26.903Z,852.85
2018-05-14T10:05:26.889Z,852.84
2018-05-14T10:06:26.859Z,852.82
2018-05-14T10:07:26.877Z,852.87
2018-05-14T10:08:26.845Z,852.84
2018-05-14T10:09:26.848Z,852.80
2018-05-14T10:10:26.836Z,852.81
2018-05-14T10:11:26.831Z,852.71
2018-05-14T10:12:26.815Z,852.67
2018-05-14T10:13:26.812Z,852.65
2018-05-14T10:14:26.806Z,852.67
2018-05-14T10:15:26.809Z,852.72
2018-05-14T10:16:26.791Z,852.70
2018-05-14T10:17:26.788Z,852.63
2018-05-14T10:18:26.804Z,852.64
2018-05-14T10:19:26.772Z,852.62
2018-05-14T10:20:26.784Z,852.61
2018-05-14T10:21:26.769Z,852.59
2018-05-14T10:22:26.750Z,852.57
2018-05-14T10:23:26.742Z,852.57
2018-05-14T10:24:26.749Z,852.56
2018-05-14T10:25:26.749Z,852.59
2018-05-14T10:26:26.722Z,852.59
2018-05-14T10:27:26.713Z,852.60
2018-05-14T10:28:26.730Z,852.56
2018-05-14T10:29:26.702Z,852.55
2018-05-14T10:30:26.699Z,852.52
2018-05-14T10:31:26.689Z,852.53
2018-05-14T10:32:26.688Z,852.49
2018-05-14T10:33:26.683Z,852.45
2018-05-14T10:34:26.670Z,852.42
2018-05-14T10:35:26.667Z,852.38
2018-05-14T10:36:26.663Z,852.38
2018-05-14T10:37:26.658Z,852.37
2018-05-14T10:38:26.642Z,852.36
2018-05-14T10:39:26.638Z,852.36
2018-05-14T10:40:26.630Z,852.33
2018-05-14T10:41:26.629Z,852.34
2018-05-14T10:42:26.619Z,852.33
2018-05-14T10:43:26.620Z,852.33
2018-05-14T10:44:26.601Z,852.33
2018-05-14T10:45:26.604Z,852.28
2018-05-14T10:46:26.590Z,852.28
2018-05-14T10:47:26.582Z,852.28
2018-05-14T10:48:26.575Z,852.27
2018-05-14T10:49:26.567Z,852.26
2018-05-14T10:50:26.565Z,852.21
2018-05-14T10:51:26.564Z,852.26
2018-05-14T10:52:26.551Z,852.23
2018-05-14T10:53:26.545Z,852.18
2018-05-14T10:54:26.550Z,852.20
2018-05-14T10:55:26.548Z,852.22
